»·PEaware :: N5205X KVCV-L19

N5205X :: KVCV-L19

FLIGHT INFORMATION

Flight Status: Arrived
Operator: Privately registered:
United States
More flights under this callsign
Pilot: Martin B. (29991)
Aircraft: CIRRUS SR-22 TURBO
(S22T)
More flights by this aircraft type
Origin: KVCV Socal Logistics
United States
Destination: L19 Wasco-Kern Co
United States
More flights between these airports :: More routes between these airports
Route: ZOREN V386 PMD V197 EHF
File this flight plan on PilotEdge
Remarks:
Altitude:
(Current/Filed)
14,000ft
Speed:
(Current/Filed)
170kts
Departed: 27-Dec-20 12:44 PM
Arrived: 27-Dec-20 01:44 PM
Distance/Time
Traveled:
115nm/0:59
Distance/Time
To Go:
Arrived

Flight Plot

Page will automatically refresh every two minutes.

Flight plan parsing failed; only flown route is shown


Map Options




Map Legend


Flown Route
Filed Route
Departure Airport
Arrival Airport
Navaid (VOR, NDB)
Fix

Horizontal Profiles

Position Reports

Time Latitude Longitude Heading Altitude Ground
Speed
27-Dec-20 12:27 34.588333 -117.376341 313 2873ft 0kts
27-Dec-20 12:29 34.588333 -117.376341 313 2873ft 0kts
27-Dec-20 12:30 34.588333 -117.376341 313 2873ft 0kts
27-Dec-20 12:31 34.588333 -117.376341 313 2873ft 0kts
27-Dec-20 12:32 34.588333 -117.376341 313 2873ft 0kts
27-Dec-20 12:33 34.588333 -117.376341 313 2873ft 0kts
27-Dec-20 12:34 34.588333 -117.376341 313 2873ft 0kts
27-Dec-20 12:35 34.588333 -117.376341 313 2873ft 0kts
27-Dec-20 12:36 34.588342 -117.376354 310 2873ft 0kts
27-Dec-20 12:37 34.591226 -117.373358 59 2867ft 16kts
27-Dec-20 12:38 34.592975 -117.368692 51 2864ft 17kts
27-Dec-20 12:39 34.597566 -117.367047 7 2853ft 19kts
27-Dec-20 12:40 34.599266 -117.366514 15 2850ft 0kts
27-Dec-20 12:41 34.599270 -117.366512 14 2850ft 0kts
27-Dec-20 12:42 34.599270 -117.366512 14 2850ft 0kts
27-Dec-20 12:43 34.599984 -117.366731 302 2849ft 11kts
27-Dec-20 12:44 34.589593 -117.386060 260 3333ft 127kts
27-Dec-20 12:44 34.584514 -117.422773 261 4534ft 131kts
27-Dec-20 12:46 34.576611 -117.471723 262 6018ft 132kts
27-Dec-20 12:47 34.568381 -117.522831 262 6054ft 162kts
27-Dec-20 12:47 34.569059 -117.563747 281 6812ft 132kts
27-Dec-20 12:48 34.574456 -117.604746 280 7865ft 117kts
27-Dec-20 12:50 34.580140 -117.649266 278 8945ft 113kts
27-Dec-20 12:51 34.584892 -117.686712 276 9881ft 112kts
27-Dec-20 12:51 34.585497 -117.717164 241 10648ft 110kts
27-Dec-20 12:52 34.570687 -117.749370 240 11581ft 109kts
27-Dec-20 12:53 34.557464 -117.782045 241 12505ft 107kts
27-Dec-20 12:54 34.543865 -117.816431 241 13025ft 129kts
27-Dec-20 12:55 34.532842 -117.859569 297 13345ft 148kts
27-Dec-20 12:56 34.553924 -117.898351 289 14029ft 167kts
27-Dec-20 12:57 34.577506 -117.947743 288 14009ft 169kts
27-Dec-20 12:58 34.600692 -117.997590 288 13988ft 170kts
27-Dec-20 12:59 34.623297 -118.046420 288 13988ft 170kts
27-Dec-20 13:00 34.645408 -118.082089 301 13991ft 178kts
27-Dec-20 13:01 34.684019 -118.132213 301 14138ft 173kts
27-Dec-20 13:02 34.716315 -118.174274 301 14141ft 177kts
27-Dec-20 13:03 34.749908 -118.218022 301 14139ft 177kts
27-Dec-20 13:04 34.783599 -118.261963 301 14140ft 177kts
27-Dec-20 13:05 34.817354 -118.306036 301 14143ft 177kts
27-Dec-20 13:06 34.850647 -118.349566 301 14144ft 177kts
27-Dec-20 13:07 34.877089 -118.384176 301 14139ft 177kts
27-Dec-20 13:08 34.898072 -118.411670 302 14135ft 177kts
27-Dec-20 13:09 34.915782 -118.434842 302 14123ft 165kts
27-Dec-20 13:10 34.929267 -118.452403 302 14116ft 153kts
27-Dec-20 13:11 34.948035 -118.476872 304 14124ft 161kts
27-Dec-20 13:12 34.958222 -118.490079 304 14111ft 152kts
27-Dec-20 13:13 34.966403 -118.500756 304 14110ft 147kts
27-Dec-20 13:14 34.973624 -118.510196 304 14108ft 142kts
27-Dec-20 13:15 34.981207 -118.520149 303 14111ft 139kts
27-Dec-20 13:16 34.989341 -118.530866 304 14119ft 144kts
27-Dec-20 13:17 34.997518 -118.541622 303 14125ft 150kts
27-Dec-20 13:18 35.001568 -118.547056 303 14119ft 148kts
27-Dec-20 13:19 35.001568 -118.547056 303 14119ft 148kts
27-Dec-20 13:20 35.016634 -118.567207 305 14127ft 163kts
27-Dec-20 13:21 35.051709 -118.607426 311 14119ft 174kts
27-Dec-20 13:22 35.088001 -118.648145 311 14114ft 175kts
27-Dec-20 13:23 35.124873 -118.689552 310 14103ft 172kts
27-Dec-20 13:24 35.161496 -118.730354 310 14096ft 175kts
27-Dec-20 13:25 35.198121 -118.772198 310 14082ft 178kts
27-Dec-20 13:26 35.235866 -118.815058 310 14073ft 183kts
27-Dec-20 13:27 35.273926 -118.858105 310 14073ft 183kts
27-Dec-20 13:28 35.312487 -118.901763 310 14073ft 183kts
27-Dec-20 13:29 35.350506 -118.944840 310 13827ft 178kts
27-Dec-20 13:30 35.381977 -118.980527 310 12808ft 130kts
27-Dec-20 13:31 35.405944 -119.007797 310 11785ft 105kts
27-Dec-20 13:32 35.426870 -119.031607 310 10813ft 98kts
27-Dec-20 13:33 35.447115 -119.055099 311 9881ft 98kts
27-Dec-20 13:34 35.467841 -119.078088 311 8979ft 102kts
27-Dec-20 13:35 35.489217 -119.105941 299 8121ft 111kts
27-Dec-20 13:36 35.506111 -119.137744 301 7055ft 105kts
27-Dec-20 13:37 35.522840 -119.169188 303 6037ft 104kts
27-Dec-20 13:38 35.536337 -119.194539 301 5898ft 83kts
27-Dec-20 13:39 35.555666 -119.231210 304 5576ft 139kts
27-Dec-20 13:40 35.573096 -119.264368 305 4612ft 98kts
27-Dec-20 13:41 35.586670 -119.297172 301 3176ft 116kts
27-Dec-20 13:42 35.605146 -119.333590 304 1451ft 104kts
27-Dec-20 13:43 35.620740 -119.355219 244 315ft 0kts

Navigation Log

Ident Type
Flight plan parsing failed, navigation log unavailable